Flight Track Log - Related Links

Times and Time Zones

All times are in EDT time to prevent confusion due to time zone crossing. See the KAP644 flight status page for this flight to view local times or setup timezone preferences in your user account.


Time Position Orientation Groundspeed Altitude Reporting Facility
EDT Latitude Longitude Course Direction KTS MPH feet Rate Location/Type
Wed 06:38:30 PM 42.3500 -70.9833 114° Southeast 93 107 700  Level KA90
Wed 06:39:33 PM 42.3333 -70.9333 114° Southeast 111 128 1,600 732 Climbing KA90
Wed 06:40:33 PM 42.3167 -70.9000 124° Southeast 110 127 2,200 610 Climbing KA90
Wed 06:41:31 PM 42.3000 -70.9000 180° South 104 120 2,800 545 Climbing KA90
Wed 06:42:34 PM 42.2667 -70.8833 160° South 114 131 3,300 390 Climbing KA90
Wed 06:43:34 PM 42.2333 -70.8833 180° South 125 144 3,600 153 Climbing KA90
Wed 06:44:32 PM 42.1833 -70.8667 166° South 158 182 3,600  Level KA90
Wed 06:45:34 PM 42.1333 -70.8500 166° South 170 196 3,600  Level KA90
Wed 06:47:00 PM 42.0816 -70.8333 160° South  Level Estimated
Wed 06:54:00 PM 41.8268 -70.7758 161° South  Level FlightAware Approximate
Wed 06:55:00 PM 41.7916 -70.7598 161° South  Level FlightAware Approximate
Wed 06:56:00 PM 41.7565 -70.7438 161° South  Level FlightAware Approximate
Wed 06:57:00 PM 41.7211 -70.7287 164° South  Level FlightAware Approximate
Wed 06:58:00 PM 41.6853 -70.7153 164° South  Level FlightAware Approximate
Wed 06:59:00 PM 41.6496 -70.7019 164° South  Level FlightAware Approximate
Wed 07:00:00 PM 41.6138 -70.6885 164° South  Level FlightAware Approximate
Wed 07:01:00 PM 41.5780 -70.6751 164° South  Level FlightAware Approximate
Wed 07:02:00 PM 41.5423 -70.6617 164° South  Level FlightAware Approximate
Wed 07:03:00 PM 41.5065 -70.6482 164° South  Level FlightAware Approximate
Wed 07:04:00 PM 41.4707 -70.6349 164° South  Level FlightAware Approximate
Wed 07:05:00 PM 41.4352 -70.6207 163° South  Level FlightAware Approximate
Wed 07:06:00 PM 41.3996 -70.6065 163° South  Level FlightAware Approximate
Wed 07:07:00 PM 41.3934 -70.6139 163° South  Level Estimated
Wed 07:08:00 PM 41.3934 -70.6139 163° South  Level Estimated
Wed 07:09:00 PM 41.3934 -70.6139 163° South  Level Estimated
Wed 07:10:00 PM 41.3934 -70.6139 163° South  Level Estimated
Wed 07:11:00 PM 41.3934 -70.6139 163° South  Level Estimated
Wed 07:12:00 PM 41.3934 -70.6139 163° South  Level Estimated
Wed 07:13:00 PM 41.3934 -70.6139 163° South  Level Estimated
Wed 07:14:00 PM 41.3934 -70.6139 163° South  Level Estimated
Wed 07:15:00 PM 41.3934 -70.6139 163° South  Level Estimated
Wed 07:16:00 PM 41.3934 -70.6139 163° South  Level Estimated
Wed 07:17:00 PM 41.3934 -70.6139 163° South  Level Estimated
Wed 07:18:00 PM 41.3934 -70.6139 163° South  Level Estimated
Wed 07:19:00 PM 41.3934 -70.6139 163° South  Level Estimated
Wed 07:20:00 PM 41.3934 -70.6139 163° South  Level Estimated
Wed 07:21:00 PM 41.3934 -70.6139 163° South  Level Estimated

Login

Don't have an account? Register now (free) for customized features, flight alerts, and more!